Time;durP1;ratioP1;P1;durP2;ratioP2;P2;SDS_P1;SDS_P2;PMS_P1;PMS_P2;Temp;Humidity;BMP_temperature;BMP_pressure;BME280_temperature;BME280_humidity;BME280_pressure;Samples;Min_cycle;Max_cycle;Signal;HPM_P1;HPM_P2
2023/12/09 00:01:18;;;;;;;25.23;5.20;;;;;;;6.52;100.00;100041.31;5019063;28;20033;-70
2023/12/09 00:03:44;;;;;;;25.83;5.47;;;;;;;6.52;100.00;100041.31;5035440;28;20056;-71
2023/12/09 00:06:09;;;;;;;30.25;5.35;;;;;;;6.54;100.00;100033.59;5026669;28;20036;-71
2023/12/09 00:08:34;;;;;;;28.88;6.00;;;;;;;6.55;100.00;100024.22;5005508;28;20486;-70
2023/12/09 00:11:01;;;;;;;26.42;6.47;;;;;;;6.55;100.00;100019.53;5035580;28;20087;-70
2023/12/09 00:13:26;;;;;;;21.77;4.72;;;;;;;6.55;100.00;100008.50;5035331;28;20100;-71
2023/12/09 00:15:52;;;;;;;27.55;5.13;;;;;;;6.55;100.00;100010.44;5018656;28;20029;-71
2023/12/09 00:18:17;;;;;;;27.48;5.65;;;;;;;6.58;100.00;100012.63;5015903;28;20045;-71
2023/12/09 00:20:44;;;;;;;34.17;6.30;;;;;;;6.59;100.00;100015.09;5018543;28;20083;-71
2023/12/09 00:23:09;;;;;;;26.20;4.90;;;;;;;6.59;100.00;100008.75;5018399;28;20026;-71
2023/12/09 00:25:35;;;;;;;30.85;4.97;;;;;;;6.56;100.00;100001.88;5008267;28;20028;-71
2023/12/09 00:28:00;;;;;;;24.05;4.60;;;;;;;6.60;100.00;99991.09;5007074;28;20037;-70
2023/12/09 00:30:26;;;;;;;27.17;5.40;;;;;;;6.60;100.00;99991.09;5018765;28;20032;-71
2023/12/09 00:32:52;;;;;;;19.23;4.38;;;;;;;6.60;100.00;99980.91;5017075;28;20156;-71
2023/12/09 00:35:18;;;;;;;26.77;5.10;;;;;;;6.62;100.00;99980.59;5018751;28;20026;-71
2023/12/09 00:37:44;;;;;;;29.77;5.28;;;;;;;6.63;100.00;99971.19;5017050;28;20068;-71
2023/12/09 00:40:10;;;;;;;32.55;4.85;;;;;;;6.63;100.00;99965.69;5035013;28;20026;-71
2023/12/09 00:42:37;;;;;;;26.35;4.43;;;;;;;6.64;100.00;99967.34;5034848;28;20037;-71
2023/12/09 00:45:04;;;;;;;23.88;4.60;;;;;;;6.65;100.00;99957.97;5034583;28;20035;-71
2023/12/09 00:47:29;;;;;;;22.15;4.00;;;;;;;6.65;100.00;99958.78;5002073;28;20037;-71
2023/12/09 00:49:55;;;;;;;21.83;4.50;;;;;;;6.66;100.00;99954.13;5004846;28;20090;-71
2023/12/09 00:52:20;;;;;;;34.67;4.68;;;;;;;6.68;100.00;99947.19;5021810;28;20029;-71
2023/12/09 00:54:47;;;;;;;24.70;4.38;;;;;;;6.67;100.00;99939.19;5016762;28;20029;-71
2023/12/09 00:57:12;;;;;;;21.98;4.07;;;;;;;6.69;100.00;99928.72;5028361;28;20030;-71
2023/12/09 00:59:38;;;;;;;20.05;4.05;;;;;;;6.69;100.00;99925.94;5034872;28;20030;-71
2023/12/09 01:02:03;;;;;;;22.63;5.15;;;;;;;6.70;100.00;99927.59;4985304;28;20030;-71
2023/12/09 01:04:28;;;;;;;27.85;3.90;;;;;;;6.73;100.00;99921.50;5002110;28;20037;-71
2023/12/09 01:06:54;;;;;;;27.73;4.03;;;;;;;6.73;100.00;99918.75;5027080;28;20032;-71
2023/12/09 01:09:23;;;;;;;29.67;4.30;;;;;;;6.74;100.00;99911.28;5034773;28;20025;-71
2023/12/09 01:11:48;;;;;;;23.88;4.28;;;;;;;6.77;100.00;99914.31;5035918;28;20029;-71
2023/12/09 01:14:14;;;;;;;32.90;4.55;;;;;;;6.78;100.00;99906.88;5032652;28;20038;-71
2023/12/09 01:16:40;;;;;;;23.80;3.67;;;;;;;6.79;100.00;99914.03;5017638;28;20064;-71
2023/12/09 01:19:06;;;;;;;24.60;4.20;;;;;;;6.81;100.00;99914.56;5034489;28;20076;-71
2023/12/09 01:21:31;;;;;;;24.30;4.05;;;;;;;6.81;100.00;99901.59;5018195;28;20026;-71
2023/12/09 01:23:57;;;;;;;22.45;4.15;;;;;;;6.84;100.00;99911.25;5001815;28;20042;-71
2023/12/09 01:26:23;;;;;;;28.45;3.80;;;;;;;6.87;100.00;99894.13;5017969;28;20557;-71
2023/12/09 01:28:48;;;;;;;25.75;4.63;;;;;;;6.87;100.00;99889.41;5018880;28;20038;-71
2023/12/09 01:31:14;;;;;;;26.67;4.32;;;;;;;6.88;100.00;99881.94;5021736;28;20021;-71
2023/12/09 01:33:41;;;;;;;28.25;4.45;;;;;;;6.89;100.00;99881.69;5021905;28;20033;-71
2023/12/09 01:36:06;;;;;;;25.67;4.07;;;;;;;6.91;100.00;99871.19;5006898;28;20032;-71
2023/12/09 01:38:32;;;;;;;25.80;4.25;;;;;;;6.93;100.00;99866.19;5019954;28;20037;-71
2023/12/09 01:41:06;;;;;;;29.38;4.57;;;;;;;6.96;100.00;99863.97;5022614;28;20025;-71
2023/12/09 01:43:32;;;;;;;32.15;5.10;;;;;;;6.97;100.00;99866.47;5022072;28;20040;-71
2023/12/09 01:46:00;;;;;;;30.80;5.05;;;;;;;6.98;100.00;99861.75;5020477;28;20030;-71
2023/12/09 01:48:26;;;;;;;22.55;4.47;;;;;;;7.02;100.00;99854.53;5022109;28;20052;-71
2023/12/09 01:50:52;;;;;;;31.30;4.15;;;;;;;7.03;100.00;99843.22;5028365;28;20401;-71
2023/12/09 01:53:17;;;;;;;25.25;4.68;;;;;;;7.06;100.00;99841.81;5013582;28;20029;-71
2023/12/09 01:55:43;;;;;;;33.47;5.13;;;;;;;7.07;100.00;99829.66;5021770;28;20132;-71
2023/12/09 01:58:09;;;;;;;31.95;3.95;;;;;;;7.11;100.00;99816.94;5019429;28;20070;-71
2023/12/09 02:00:34;;;;;;;25.63;4.43;;;;;;;7.11;100.00;99814.19;5067075;28;20025;-71
2023/12/09 02:03:00;;;;;;;34.95;5.35;;;;;;;7.13;100.00;99811.94;5004982;28;20539;-71
2023/12/09 02:05:26;;;;;;;32.70;5.35;;;;;;;7.16;100.00;99811.38;5003733;28;20037;-71
2023/12/09 02:07:52;;;;;;;28.55;5.88;;;;;;;7.17;100.00;99815.78;5029767;28;20029;-71
2023/12/09 02:10:17;;;;;;;26.90;6.20;;;;;;;7.19;100.00;99808.03;5004786;28;20025;-71
2023/12/09 02:12:50;;;;;;;25.02;5.53;;;;;;;7.21;100.00;99804.97;4990734;28;20038;-71
2023/12/09 02:15:24;;;;;;;27.10;5.60;;;;;;;7.22;100.00;99812.97;5035641;28;20089;-71
2023/12/09 02:18:03;;;;;;;33.20;6.43;;;;;;;7.24;100.00;99807.97;5037343;28;20049;-71
2023/12/09 02:20:29;;;;;;;35.72;7.63;;;;;;;7.27;100.00;99810.19;5020719;28;20111;-71
2023/12/09 02:23:11;;;;;;;29.25;7.45;;;;;;;7.29;100.00;99799.66;5002506;28;20034;-71
2023/12/09 02:25:37;;;;;;;27.90;7.28;;;;;;;7.31;100.00;99789.13;5037420;28;20108;-71
2023/12/09 02:28:13;;;;;;;27.08;6.63;;;;;;;7.31;100.00;99785.56;5020656;28;20078;-71
2023/12/09 02:30:43;;;;;;;31.83;6.97;;;;;;;7.32;100.00;99768.69;5021341;28;20052;-71
2023/12/09 02:33:09;;;;;;;30.77;6.35;;;;;;;7.36;100.00;99755.94;5021785;28;20505;-71
2023/12/09 02:35:37;;;;;;;32.70;6.45;;;;;;;7.37;100.00;99749.31;5020798;28;20025;-71
2023/12/09 02:38:03;;;;;;;39.47;6.80;;;;;;;7.38;100.00;99745.44;5020956;28;20034;-71
2023/12/09 02:40:28;;;;;;;28.00;5.90;;;;;;;7.38;100.00;99728.88;5019875;28;20033;-71
2023/12/09 02:42:54;;;;;;;25.58;5.25;;;;;;;7.42;100.00;99722.75;5020399;28;20036;-71
2023/12/09 02:45:24;;;;;;;36.75;6.18;;;;;;;7.42;100.00;99701.47;5018614;28;20148;-71
2023/12/09 02:47:49;;;;;;;34.47;5.68;;;;;;;7.44;100.00;99696.50;5036831;28;20021;-71
2023/12/09 02:50:15;;;;;;;33.25;5.60;;;;;;;7.44;100.00;99695.63;5025920;28;20036;-71
2023/12/09 02:52:40;;;;;;;39.47;6.15;;;;;;;7.49;100.00;99673.47;5020810;28;20088;-71
2023/12/09 02:55:07;;;;;;;35.33;6.55;;;;;;;7.50;100.00;99678.72;5004060;28;20060;-71
2023/12/09 02:57:32;;;;;;;30.13;5.20;;;;;;;7.54;100.00;99671.47;5021666;28;20367;-71
2023/12/09 02:59:58;;;;;;;30.15;6.45;;;;;;;7.55;100.00;99655.72;5020110;28;20030;-71
2023/12/09 03:02:23;;;;;;;36.97;7.43;;;;;;;7.59;100.00;99651.25;5019852;28;20033;-71
2023/12/09 03:04:49;;;;;;;37.90;6.80;;;;;;;7.60;100.00;99639.94;5036683;28;20064;-71
2023/12/09 03:07:15;;;;;;;32.55;6.70;;;;;;;7.62;100.00;99639.63;5021236;28;20032;-71
2023/12/09 03:09:40;;;;;;;31.40;6.25;;;;;;;7.66;100.00;99637.06;5003623;28;20037;-71
2023/12/09 03:12:06;;;;;;;28.38;6.45;;;;;;;7.66;100.00;99632.41;5003550;28;20029;-71
2023/12/09 03:14:32;;;;;;;31.85;6.15;;;;;;;7.70;100.00;99619.63;5029212;28;20038;-71
2023/12/09 03:17:02;;;;;;;34.83;7.32;;;;;;;7.73;100.00;99613.50;5050168;28;20073;-71
2023/12/09 03:19:28;;;;;;;42.22;6.82;;;;;;;7.74;100.00;99608.78;5019942;28;20066;-71
2023/12/09 03:21:54;;;;;;;27.27;6.47;;;;;;;7.75;100.00;99611.25;5019664;28;20466;-71
2023/12/09 03:24:20;;;;;;;29.63;7.13;;;;;;;7.77;100.00;99610.94;5003516;28;20037;-71
2023/12/09 03:26:49;;;;;;;28.30;6.93;;;;;;;7.77;100.00;99592.44;5035993;28;20029;-71
2023/12/09 03:29:15;;;;;;;34.60;6.43;;;;;;;7.76;100.00;99571.44;5003339;28;20112;-71
2023/12/09 03:31:41;;;;;;;32.15;6.85;;;;;;;7.78;100.00;99577.50;5019456;28;20025;-71
2023/12/09 03:34:06;;;;;;;28.52;7.03;;;;;;;7.82;100.00;99578.53;5003262;28;20029;-71
2023/12/09 03:36:32;;;;;;;34.55;6.35;;;;;;;7.84;100.00;99570.75;5003148;28;20497;-71
2023/12/09 03:38:58;;;;;;;32.15;7.32;;;;;;;7.87;100.00;99554.72;5019543;28;20033;-72
2023/12/09 03:41:23;;;;;;;35.78;6.80;;;;;;;7.86;100.00;99542.84;5002964;28;20547;-71
2023/12/09 03:43:49;;;;;;;36.45;6.90;;;;;;;7.89;100.00;99538.66;5003092;28;20033;-71
2023/12/09 03:46:14;;;;;;;22.52;5.88;;;;;;;7.90;100.00;99513.47;5001107;28;20082;-71
2023/12/09 03:48:44;;;;;;;28.85;5.32;;;;;;;7.93;100.00;99512.03;5019483;28;20030;-71
2023/12/09 03:51:10;;;;;;;29.60;5.20;;;;;;;7.91;100.00;99500.44;5026782;28;20025;-71
2023/12/09 03:53:35;;;;;;;29.45;5.18;;;;;;;7.94;100.00;99494.31;5028984;28;20059;-71
2023/12/09 03:56:00;;;;;;;29.45;5.97;;;;;;;7.97;100.00;99479.91;4983777;28;20033;-71
2023/12/09 03:58:26;;;;;;;36.83;5.63;;;;;;;7.96;100.00;99481.03;5043836;28;20076;-71
2023/12/09 04:00:52;;;;;;;28.50;6.45;;;;;;;8.02;100.00;99477.03;5035193;28;20026;-71
2023/12/09 04:03:18;;;;;;;25.85;5.63;;;;;;;7.98;100.00;99464.97;5019201;28;20029;-71
2023/12/09 04:05:44;;;;;;;19.52;5.25;;;;;;;8.01;100.00;99454.09;5002676;28;20029;-71
2023/12/09 04:08:09;;;;;;;23.55;5.53;;;;;;;8.03;100.00;99451.06;5020328;28;20104;-71
2023/12/09 04:10:35;;;;;;;21.88;5.18;;;;;;;8.04;100.00;99458.22;5019118;28;20056;-71
2023/12/09 04:13:00;;;;;;;19.40;5.50;;;;;;;8.03;100.00;99437.22;5018955;28;20071;-71
2023/12/09 04:15:27;;;;;;;21.33;5.97;;;;;;;8.11;100.00;99431.00;5003278;28;20026;-71
2023/12/09 04:17:53;;;;;;;23.33;5.90;;;;;;;8.10;100.00;99434.06;5019036;28;20045;-72
2023/12/09 04:20:19;;;;;;;19.55;5.65;;;;;;;8.12;100.00;99423.53;5002223;28;20394;-71
2023/12/09 04:22:47;;;;;;;18.73;5.32;;;;;;;8.12;100.00;99416.03;5015381;28;20084;-71
2023/12/09 04:25:12;;;;;;;20.65;5.60;;;;;;;8.12;100.00;99406.94;5067124;28;20037;-72
2023/12/09 04:27:39;;;;;;;13.80;4.78;;;;;;;8.16;100.00;99397.72;5018453;28;20026;-71
2023/12/09 04:30:05;;;;;;;11.30;3.90;;;;;;;8.15;100.00;99398.00;5034850;28;20541;-71
2023/12/09 04:32:31;;;;;;;13.85;4.10;;;;;;;8.18;100.00;99397.41;5035033;28;20068;-71
2023/12/09 04:34:59;;;;;;;8.57;3.78;;;;;;;8.17;100.00;99391.06;5015160;28;20030;-72
2023/12/09 04:37:25;;;;;;;12.05;3.40;;;;;;;8.20;100.00;99384.91;5029358;28;20033;-71
2023/12/09 04:39:50;;;;;;;12.40;3.58;;;;;;;8.21;100.00;99386.53;5035048;28;20040;-71
2023/12/09 04:42:17;;;;;;;7.30;3.25;;;;;;;8.22;100.00;99377.13;5018348;28;20026;-71
2023/12/09 04:44:42;;;;;;;11.32;3.45;;;;;;;8.22;100.00;99365.25;5016943;28;20021;-71
2023/12/09 04:47:08;;;;;;;7.60;3.40;;;;;;;8.23;100.00;99367.69;5018298;28;20029;-71
2023/12/09 04:49:34;;;;;;;11.45;2.65;;;;;;;8.24;100.00;99349.16;5018412;28;20025;-71
2023/12/09 04:51:59;;;;;;;12.90;2.80;;;;;;;8.25;100.00;99343.31;5025101;28;20407;-71
2023/12/09 04:54:25;;;;;;;8.18;2.67;;;;;;;8.25;100.00;99325.91;5035263;28;20052;-71
2023/12/09 04:56:50;;;;;;;6.78;2.03;;;;;;;8.26;100.00;99319.25;5034806;28;20044;-71
2023/12/09 04:59:17;;;;;;;6.05;2.17;;;;;;;8.28;100.00;99306.75;5018143;28;20493;-71
2023/12/09 05:01:42;;;;;;;6.47;2.35;;;;;;;8.30;100.00;99306.44;4999884;28;20117;-71
2023/12/09 05:04:09;;;;;;;6.40;2.03;;;;;;;8.33;100.00;99303.06;5035864;28;20029;-71
2023/12/09 05:06:37;;;;;;;9.18;1.85;;;;;;;8.35;100.00;99286.97;5006105;28;20030;-71
2023/12/09 05:09:03;;;;;;;4.68;1.65;;;;;;;8.38;100.00;99282.75;5023490;28;20038;-71
2023/12/09 05:11:29;;;;;;;7.20;2.08;;;;;;;8.38;100.00;99275.28;5022209;28;20037;-72
2023/12/09 05:13:54;;;;;;;6.05;1.90;;;;;;;8.40;100.00;99278.59;5005930;28;20087;-72
2023/12/09 05:16:20;;;;;;;4.93;1.92;;;;;;;8.42;100.00;99267.22;5021940;28;20029;-71
2023/12/09 05:18:46;;;;;;;6.55;1.77;;;;;;;8.45;100.00;99269.38;5023856;28;20076;-71
2023/12/09 05:21:15;;;;;;;6.50;1.40;;;;;;;8.49;100.00;99262.06;5039694;28;20037;-71
2023/12/09 05:23:48;;;;;;;7.93;1.70;;;;;;;8.49;100.00;99248.22;5021974;28;20025;-72
2023/12/09 05:26:23;;;;;;;4.38;1.23;;;;;;;8.53;100.00;99232.66;5021953;28;20056;-71
2023/12/09 05:28:50;;;;;;;3.78;1.50;;;;;;;8.54;100.00;99225.19;4991420;28;20026;-71
2023/12/09 05:31:16;;;;;;;4.40;1.48;;;;;;;8.54;100.00;99225.19;5033571;28;20018;-71
2023/12/09 05:33:42;;;;;;;4.57;1.60;;;;;;;8.57;100.00;99217.06;4989490;28;20115;-71
2023/12/09 05:36:07;;;;;;;3.35;1.45;;;;;;;8.58;100.00;99206.81;5000554;28;20053;-71
2023/12/09 05:38:33;;;;;;;2.80;1.33;;;;;;;8.61;100.00;99203.41;5021939;28;20055;-72
2023/12/09 05:40:59;;;;;;;3.42;1.52;;;;;;;8.62;100.00;99186.50;5004063;28;20104;-72
2023/12/09 05:43:25;;;;;;;4.93;1.38;;;;;;;8.63;100.00;99199.19;5005441;28;20034;-71
2023/12/09 05:45:50;;;;;;;1.42;1.10;;;;;;;8.65;100.00;99196.94;5003530;28;20030;-71
2023/12/09 05:48:16;;;;;;;5.13;1.50;;;;;;;8.69;100.00;99202.66;5038111;28;20029;-71
2023/12/09 05:50:42;;;;;;;3.38;1.40;;;;;;;8.70;100.00;99191.28;5011952;28;20385;-71
2023/12/09 05:53:07;;;;;;;2.08;1.30;;;;;;;8.72;100.00;99194.56;5018322;28;20513;-71
2023/12/09 05:55:34;;;;;;;3.75;1.10;;;;;;;8.76;100.00;99180.91;5021243;28;20037;-71
2023/12/09 05:58:01;;;;;;;0.98;0.80;;;;;;;8.79;100.00;99179.47;5021545;28;20525;-71
2023/12/09 06:00:27;;;;;;;3.42;1.25;;;;;;;8.77;100.00;99167.88;5021022;28;20025;-71
2023/12/09 06:02:52;;;;;;;1.23;0.88;;;;;;;8.82;100.00;99160.28;5005408;28;20056;-72
2023/12/09 06:05:18;;;;;;;2.92;0.88;;;;;;;8.81;100.00;99163.38;5025054;28;20037;-72
2023/12/09 06:07:43;;;;;;;2.53;0.70;;;;;;;8.84;100.00;99157.19;5021254;28;20037;-71
2023/12/09 06:10:09;;;;;;;0.82;0.40;;;;;;;8.89;100.00;99152.34;5039739;28;20036;-72
2023/12/09 06:12:35;;;;;;;1.42;0.50;;;;;;;8.95;100.00;99122.56;5037485;28;20033;-71
2023/12/09 06:15:00;;;;;;;1.73;0.50;;;;;;;8.95;100.00;99133.66;5019441;28;20037;-72
2023/12/09 06:17:26;;;;;;;2.25;0.57;;;;;;;8.98;100.00;99127.47;5003946;28;20068;-72
2023/12/09 06:19:51;;;;;;;1.80;0.82;;;;;;;9.01;100.00;99121.31;5038547;28;20080;-71
2023/12/09 06:22:17;;;;;;;1.63;0.40;;;;;;;9.01;100.00;99124.06;5004571;28;20034;-71
2023/12/09 06:24:44;;;;;;;0.30;0.30;;;;;;;9.04;100.00;99109.59;5021144;28;20155;-71
2023/12/09 06:27:09;;;;;;;0.95;0.30;;;;;;;9.04;100.00;99109.59;5020864;28;20678;-71
2023/12/09 06:29:35;;;;;;;0.50;0.30;;;;;;;9.09;100.00;99112.22;5004417;28;20057;-71
2023/12/09 06:32:00;;;;;;;0.40;0.30;;;;;;;9.10;100.00;99086.16;5037205;28;20025;-71
2023/12/09 06:34:26;;;;;;;0.30;0.30;;;;;;;9.11;100.00;99082.25;5020678;28;20053;-71
2023/12/09 06:36:52;;;;;;;1.70;0.30;;;;;;;9.15;100.00;99076.91;5004546;28;20474;-72
2023/12/09 06:39:18;;;;;;;1.02;0.30;;;;;;;9.19;100.00;99069.56;5004268;28;20036;-72
2023/12/09 06:41:43;;;;;;;1.17;0.30;;;;;;;9.25;100.00;99070.25;5020521;28;20059;-71
2023/12/09 06:44:09;;;;;;;0.75;0.30;;;;;;;9.24;100.00;99049.22;5001129;28;20445;-71
2023/12/09 06:46:38;;;;;;;0.45;0.30;;;;;;;9.27;100.00;99070.75;5001866;28;20096;-72
2023/12/09 06:49:03;;;;;;;0.30;0.30;;;;;;;9.29;100.00;99071.25;5015894;28;20037;-72
2023/12/09 06:51:30;;;;;;;0.40;0.30;;;;;;;9.32;100.00;99065.06;5027349;28;20025;-72
2023/12/09 06:53:56;;;;;;;0.30;0.30;;;;;;;9.35;100.00;99069.97;5047834;28;20083;-72
2023/12/09 06:56:21;;;;;;;0.55;0.30;;;;;;;9.36;100.00;99066.03;5036951;28;20029;-72
2023/12/09 06:58:47;;;;;;;0.80;0.30;;;;;;;9.38;100.00;99067.34;5020052;28;20025;-72
2023/12/09 07:01:22;;;;;;;0.35;0.35;;;;;;;9.42;100.00;99062.00;5021283;28;20089;-72
2023/12/09 07:03:49;;;;;;;1.67;0.40;;;;;;;9.45;100.00;99053.03;5010661;28;20055;-72
2023/12/09 07:06:21;;;;;;;0.40;0.40;;;;;;;9.47;100.00;99038.84;4987534;28;20030;-71
2023/12/09 07:08:47;;;;;;;1.08;0.40;;;;;;;9.49;100.00;99055.97;4986561;28;20114;-72
2023/12/09 07:11:13;;;;;;;0.40;0.40;;;;;;;9.53;100.00;99038.41;5011816;28;20079;-72
2023/12/09 07:13:39;;;;;;;0.40;0.40;;;;;;;9.54;100.00;99034.47;5020099;28;20033;-72
2023/12/09 07:16:08;;;;;;;0.50;0.50;;;;;;;9.55;100.00;99036.09;5019676;28;20044;-72
2023/12/09 07:18:34;;;;;;;0.50;0.50;;;;;;;9.60;100.00;99033.16;5019797;28;20044;-72
2023/12/09 07:20:59;;;;;;;0.57;0.50;;;;;;;9.60;100.00;99035.13;5019860;28;20033;-72
2023/12/09 07:23:25;;;;;;;0.52;0.52;;;;;;;9.62;100.00;99036.44;5036126;28;20508;-72
2023/12/09 07:25:51;;;;;;;1.33;0.50;;;;;;;9.63;100.00;99024.22;5019880;28;20076;-72
2023/12/09 07:28:16;;;;;;;1.17;0.55;;;;;;;9.68;100.00;99027.97;4986590;28;20080;-72
2023/12/09 07:30:42;;;;;;;0.60;0.60;;;;;;;9.68;100.00;99019.66;5036032;28;20033;-72
2023/12/09 07:33:11;;;;;;;0.60;0.52;;;;;;;9.71;100.00;99021.78;5003133;28;20029;-72
2023/12/09 07:35:39;;;;;;;0.50;0.50;;;;;;;9.72;100.00;99029.78;5037711;28;20485;-72
2023/12/09 07:38:05;;;;;;;0.73;0.40;;;;;;;9.74;100.00;99032.22;5003799;28;20030;-72
2023/12/09 07:40:30;;;;;;;0.60;0.38;;;;;;;9.77;100.00;99037.13;5003153;28;20486;-72
2023/12/09 07:42:56;;;;;;;0.73;0.30;;;;;;;9.78;100.00;99028.47;5019397;28;20041;-72
2023/12/09 07:45:21;;;;;;;0.40;0.40;;;;;;;9.80;100.00;99033.69;5034135;28;20041;-72
2023/12/09 07:47:47;;;;;;;2.92;0.73;;;;;;;9.83;100.00;99031.09;5035588;28;20033;-72
2023/12/09 07:50:13;;;;;;;0.68;0.50;;;;;;;9.87;100.00;99019.34;5040949;28;20025;-72
2023/12/09 07:52:39;;;;;;;0.57;0.30;;;;;;;9.91;100.00;99031.41;5023372;28;20096;-72
2023/12/09 07:55:06;;;;;;;0.45;0.40;;;;;;;9.92;100.00;99027.50;4988269;28;20049;-72
2023/12/09 07:57:32;;;;;;;0.60;0.40;;;;;;;10.05;100.00;99032.88;5033767;28;20031;-72
2023/12/09 07:59:57;;;;;;;0.93;0.50;;;;;;;10.06;100.00;99034.53;5018932;28;20025;-72
2023/12/09 08:02:23;;;;;;;1.30;0.50;;;;;;;10.11;100.00;99032.72;5018990;28;20033;-72
2023/12/09 08:04:53;;;;;;;2.15;0.47;;;;;;;10.18;100.00;99027.50;5003581;28;20363;-72
2023/12/09 08:07:19;;;;;;;0.68;0.40;;;;;;;10.17;100.00;99026.69;5002582;28;20176;-72
2023/12/09 08:09:45;;;;;;;0.70;0.50;;;;;;;10.22;100.00;99028.47;4986514;28;20033;-72
2023/12/09 08:12:10;;;;;;;1.60;0.50;;;;;;;10.21;100.00;99032.41;5035216;28;20040;-72
2023/12/09 08:14:36;;;;;;;2.00;0.30;;;;;;;10.26;100.00;99026.69;5018848;28;20026;-72
2023/12/09 08:17:02;;;;;;;1.15;0.50;;;;;;;10.73;100.00;99029.56;5002181;28;20045;-72
2023/12/09 08:19:27;;;;;;;2.83;0.47;;;;;;;10.84;100.00;99013.38;5010714;28;20044;-72
2023/12/09 08:21:53;;;;;;;2.25;0.47;;;;;;;10.93;100.00;99005.81;5034733;28;20044;-72
2023/12/09 08:24:19;;;;;;;2.50;0.65;;;;;;;10.95;100.00;99004.31;5018784;28;20037;-72
2023/12/09 08:26:44;;;;;;;2.10;0.52;;;;;;;11.03;100.00;98999.06;5019711;28;20032;-72
2023/12/09 08:29:13;;;;;;;3.92;0.77;;;;;;;11.05;100.00;99002.31;5035200;28;20425;-72
2023/12/09 08:31:39;;;;;;;2.15;0.70;;;;;;;11.11;100.00;99003.75;5018326;28;20029;-72
2023/12/09 08:34:05;;;;;;;1.35;0.65;;;;;;;11.15;100.00;99013.88;5013536;28;20479;-72
2023/12/09 08:36:30;;;;;;;0.90;0.50;;;;;;;11.19;100.00;99014.00;5032299;28;20103;-72
2023/12/09 08:38:56;;;;;;;1.75;0.70;;;;;;;11.23;100.00;99009.44;5001689;28;20022;-72
2023/12/09 08:41:21;;;;;;;4.57;0.80;;;;;;;11.21;100.00;99019.25;5003158;28;20033;-72
2023/12/09 08:43:48;;;;;;;2.05;0.80;;;;;;;11.26;100.00;99014.31;5018515;28;20099;-72
2023/12/09 08:46:14;;;;;;;3.38;0.80;;;;;;;11.28;100.00;99028.69;5016923;28;20111;-72
2023/12/09 08:48:39;;;;;;;2.13;0.60;;;;;;;11.31;100.00;99016.06;5035030;28;20025;-72
2023/12/09 08:51:04;;;;;;;2.15;0.50;;;;;;;11.33;100.00;99036.00;5041833;28;20535;-72
2023/12/09 08:53:30;;;;;;;2.53;0.60;;;;;;;11.32;100.00;99024.09;5028431;28;20036;-72
2023/12/09 08:55:56;;;;;;;2.10;0.55;;;;;;;11.44;100.00;99034.47;5017595;28;20026;-72
2023/12/09 08:58:22;;;;;;;2.05;0.50;;;;;;;11.41;100.00;99033.19;5010797;28;20078;-72
2023/12/09 09:00:47;;;;;;;3.10;0.60;;;;;;;11.52;100.00;99043.94;5001615;28;20021;-72
2023/12/09 09:03:13;;;;;;;3.25;0.70;;;;;;;11.36;100.00;99049.22;5018335;28;20034;-72
2023/12/09 09:05:39;;;;;;;1.52;0.40;;;;;;;11.34;100.00;99054.34;5020214;28;20517;-72
2023/12/09 09:08:04;;;;;;;1.67;0.68;;;;;;;11.45;100.00;99049.19;5020091;28;20082;-72
2023/12/09 09:10:30;;;;;;;3.78;0.60;;;;;;;11.46;100.00;99051.66;5001848;28;20029;-72
2023/12/09 09:12:55;;;;;;;2.13;0.43;;;;;;;11.45;100.00;99055.59;5036138;28;20030;-72
2023/12/09 09:15:27;;;;;;;2.67;0.52;;;;;;;11.52;100.00;99055.84;5001305;28;20072;-72
2023/12/09 09:17:53;;;;;;;1.10;0.70;;;;;;;11.53;100.00;99062.22;5015920;28;20402;-72
2023/12/09 09:20:18;;;;;;;1.35;0.65;;;;;;;11.53;100.00;99062.22;5034519;28;20037;-72
2023/12/09 09:22:44;;;;;;;2.78;0.50;;;;;;;11.55;100.00;99054.38;5036088;28;20086;-72
2023/12/09 09:25:09;;;;;;;2.78;0.70;;;;;;;11.54;100.00;99052.75;5035682;28;20032;-72
2023/12/09 09:27:35;;;;;;;3.30;0.80;;;;;;;11.57;100.00;99060.41;5001613;28;20029;-72
2023/12/09 09:30:00;;;;;;;2.20;0.75;;;;;;;11.62;100.00;99058.25;5001405;28;20425;-72
2023/12/09 09:32:26;;;;;;;2.17;1.00;;;;;;;11.67;100.00;99064.75;5017994;28;20030;-72
2023/12/09 09:34:52;;;;;;;3.13;1.13;;;;;;;11.65;100.00;99067.91;4994900;28;20034;-72
2023/12/09 09:37:17;;;;;;;1.80;0.65;;;;;;;11.68;100.00;99064.44;4985586;28;20033;-72
2023/12/09 09:39:50;;;;;;;1.77;0.95;;;;;;;11.67;100.00;99065.56;5036017;28;20087;-72
2023/12/09 09:42:32;;;;;;;1.92;0.60;;;;;;;11.71;100.00;99065.75;5018526;28;20025;-72
2023/12/09 09:45:10;;;;;;;0.95;0.70;;;;;;;11.74;100.00;99063.09;5016437;28;20029;-72
2023/12/09 09:47:39;;;;;;;1.42;0.80;;;;;;;11.77;100.00;99061.59;5028947;28;20026;-72
2023/12/09 09:50:06;;;;;;;2.42;0.82;;;;;;;11.81;100.00;99068.09;4996116;28;20536;-72
2023/12/09 09:52:34;;;;;;;3.22;0.82;;;;;;;11.82;100.00;99069.75;5025753;28;20029;-72
2023/12/09 09:55:00;;;;;;;1.95;0.80;;;;;;;11.83;100.00;99072.19;5027195;28;20372;-72
2023/12/09 09:57:25;;;;;;;3.28;1.10;;;;;;;11.92;100.00;99060.22;5002573;28;20083;-72
2023/12/09 09:59:53;;;;;;;1.77;1.00;;;;;;;11.95;100.00;99065.94;5004772;28;20026;-72
2023/12/09 10:02:19;;;;;;;2.97;1.40;;;;;;;11.97;100.00;99060.81;5005073;28;20498;-72
2023/12/09 10:04:44;;;;;;;3.30;1.30;;;;;;;12.00;100.00;99065.72;5037767;28;20052;-72
2023/12/09 10:07:10;;;;;;;3.97;1.40;;;;;;;12.03;100.00;99064.22;5004717;28;20025;-72
2023/12/09 10:09:36;;;;;;;3.28;0.90;;;;;;;12.11;100.00;99060.56;5002924;28;20022;-72
2023/12/09 10:12:01;;;;;;;2.55;1.00;;;;;;;12.10;100.00;99063.69;5050467;28;20071;-72
2023/12/09 10:14:26;;;;;;;3.15;1.17;;;;;;;12.13;100.00;99068.59;5017926;28;20030;-72
2023/12/09 10:16:52;;;;;;;1.77;1.17;;;;;;;12.14;100.00;99065.44;5036931;28;20022;-72
2023/12/09 10:19:20;;;;;;;3.33;0.75;;;;;;;12.18;100.00;99063.63;5020978;28;20033;-72
2023/12/09 10:21:45;;;;;;;3.45;1.00;;;;;;;12.18;100.00;99063.63;5021201;28;20131;-72
2023/12/09 10:24:11;;;;;;;3.63;0.95;;;;;;;12.20;100.00;99064.09;5004546;28;20026;-72
2023/12/09 10:26:37;;;;;;;1.30;1.02;;;;;;;12.22;100.00;99067.34;4997870;28;20033;-72
2023/12/09 10:29:03;;;;;;;3.55;1.13;;;;;;;12.28;100.00;99068.75;5000852;28;20039;-72
2023/12/09 10:31:30;;;;;;;3.58;1.05;;;;;;;12.35;100.00;99061.84;5020691;28;20033;-72
2023/12/09 10:33:56;;;;;;;1.85;0.88;;;;;;;12.38;100.00;99072.31;5021003;28;20520;-72
2023/12/09 10:36:22;;;;;;;2.30;1.00;;;;;;;12.43;100.00;99072.91;5020711;28;20125;-72
2023/12/09 10:38:48;;;;;;;1.23;0.85;;;;;;;12.49;100.00;99076.28;5020612;28;20497;-72
2023/12/09 10:41:13;;;;;;;4.15;1.33;;;;;;;12.44;100.00;99068.16;5000636;28;20033;-72
2023/12/09 10:43:40;;;;;;;2.80;0.90;;;;;;;12.44;100.00;99068.16;5045605;28;20025;-72
2023/12/09 10:46:06;;;;;;;7.95;1.13;;;;;;;12.49;100.00;99067.94;5018684;28;20025;-72
2023/12/09 10:48:32;;;;;;;4.40;1.20;;;;;;;12.49;100.00;99070.72;5004257;28;20029;-72
2023/12/09 10:50:57;;;;;;;2.65;1.00;;;;;;;12.55;100.00;99061.00;5027348;28;20060;-72
2023/12/09 10:53:22;;;;;;;2.15;0.90;;;;;;;12.57;100.00;99055.91;5017407;28;20034;-72
2023/12/09 10:55:48;;;;;;;1.00;0.90;;;;;;;12.54;100.00;99048.25;5036364;28;20048;-73
2023/12/09 10:58:14;;;;;;;2.05;0.85;;;;;;;12.61;100.00;99044.88;5004025;28;20398;-72
2023/12/09 11:00:39;;;;;;;4.60;1.20;;;;;;;12.68;100.00;99040.41;5018701;28;20053;-72
2023/12/09 11:03:04;;;;;;;2.38;1.10;;;;;;;12.71;100.00;99041.69;5019666;28;20509;-72
2023/12/09 11:05:31;;;;;;;5.32;0.95;;;;;;;12.80;100.00;99044.38;4998376;28;20083;-72
2023/12/09 11:07:57;;;;;;;4.60;1.40;;;;;;;12.83;100.00;99046.47;5036620;28;20030;-72
2023/12/09 11:10:22;;;;;;;4.78;1.38;;;;;;;12.84;100.00;99031.38;5036729;28;20032;-72
2023/12/09 11:12:49;;;;;;;5.95;1.33;;;;;;;12.84;100.00;99031.38;5029206;28;20025;-72
2023/12/09 11:15:14;;;;;;;5.82;1.48;;;;;;;12.84;100.00;99026.63;4987466;28;20498;-73
2023/12/09 11:17:40;;;;;;;5.43;1.40;;;;;;;12.82;100.00;99025.34;5019827;28;20111;-73
2023/12/09 11:20:16;;;;;;;5.38;1.23;;;;;;;12.84;100.00;99011.84;5036187;28;20037;-72
2023/12/09 11:22:45;;;;;;;3.50;1.55;;;;;;;12.87;100.00;99022.31;5019721;28;20473;-73